Hauptseite
METAR-TAF:

METAR-TAF

Flughäfen :

Leipzig-Altenburg Airport

Altenburg, Deutschland

Breite: 50-58N, Länge: 012-30E, Höhe: 195 m

Beobachtung

Neuester Wetterbericht von vor 38 Minuten, um 19:50 UTC
Wind 4 kt aus Südwest
Temperatur 6°C
Luftfeuchtigkeit 75%
Luftdruck 1018 hPa
Sichtweite 10 km oder mehr

METAR: EDAC 031950Z AUTO 23004KT 9999 // FEW035/// BKN056/// OVC078/// 06/02 Q1018

Zeit: 22:28 (20:28 UTC)

Prognose

Neuester Wetterbericht von vor 6 Stunden und 28 Minuten, um 14:00 UTC
Gültige Prognose vom 03 um 15 UTC bis 03 um 24 UTC
Wind 5 kt aus West/Südwest
Sichtweite 10 km oder mehr
Durchbrochene Bewölkung in der Höhe von 4500 ft

TAF: EDAC 031400Z 0315/0324 24005KT 9999 BKN045

Wetterbeobachtungen und Prognosen von mehr als 4000 Flughäfen (METAR und TAF Bericht).

Die verfügbaren Stationen werden durch gelbe und rote Markierungen auf der Karte dargestellt.

Führen Sie die Maus auf sie, um den Namen der Station zu sehen.

Darauf klicken, um die Beobachtung von Wetterbeobachtungen und Prognosen zu sehen.

Um die Karte zu ändern : klicken Sie auf den grünen Tasten mit einem schwarzen Kreuz Zum Vergrößern, auf den grünen Button mit einem Gedankenstrich zu verkleinern, oder auf die grünen Pfeile für benachbarte Karten.


METAR-TAF: